Terminal Aerodrome Forecast
Issued by NWS Greer, SC

Home | Current Version | Previous Version | Text Only | Print | Product List | Glossary On
Versions: 1 2 3 4 5 6 7 8 9 10 11 12 13 14 15 16 17 18 19 20 21 22
000
FTUS42 KGSP 221735 AAC
TAFGSP
TAF AMD
KGSP 221735Z 2218/2318 05009KT 2SM -DZ BR OVC004
      TEMPO 2218/2222 4SM -DZ BR OVC008
     FM230300 05008KT 2SM BR OVC002
     FM230600 05007KT 1SM -RADZ BR OVC002
     FM231300 05006KT 1 1/2SM -RADZ BR OVC003
     FM231600 04005KT 2SM -RADZ BR OVC004=

USA.gov is the U.S. government's official web portal to all federal, state and local government web resources and services.